createdAt,value
2018-06-28T00:00:23.304Z,14.30
2018-06-28T00:02:52.436Z,14.20
2018-06-28T00:05:23.090Z,14.10
2018-06-28T00:07:52.366Z,14.10
2018-06-28T00:10:21.669Z,14.00
2018-06-28T00:12:50.797Z,14.00
2018-06-28T00:15:21.174Z,14.00
2018-06-28T00:17:51.006Z,14.00
2018-06-28T00:20:20.218Z,13.90
2018-06-28T00:22:49.621Z,13.90
2018-06-28T00:25:20.822Z,13.90
2018-06-28T00:27:50.021Z,13.70
2018-06-28T00:30:20.081Z,13.70
2018-06-28T00:32:49.236Z,13.70
2018-06-28T00:35:18.635Z,13.60
2018-06-28T00:37:47.801Z,13.70
2018-06-28T00:40:17.800Z,13.70
2018-06-28T00:42:47.175Z,13.70
2018-06-28T00:45:17.690Z,13.70
2018-06-28T00:47:47.037Z,13.70
2018-06-28T00:50:16.973Z,13.80
2018-06-28T00:52:47.892Z,13.70
2018-06-28T00:55:19.231Z,13.70
2018-06-28T00:57:50.358Z,13.60
2018-06-28T01:00:20.549Z,13.50
2018-06-28T01:02:50.902Z,13.40
2018-06-28T01:05:21.875Z,13.40
2018-06-28T01:07:51.461Z,13.40
2018-06-28T01:10:20.666Z,13.30
2018-06-28T01:12:49.868Z,13.30
2018-06-28T01:15:18.981Z,13.30
2018-06-28T01:17:50.232Z,13.20
2018-06-28T01:20:19.614Z,13.30
2018-06-28T01:22:48.825Z,13.30
2018-06-28T01:25:20.363Z,13.30
2018-06-28T01:27:49.798Z,13.30
2018-06-28T01:30:19.507Z,13.30
2018-06-28T01:32:49.737Z,13.30
2018-06-28T01:35:18.985Z,13.30
2018-06-28T01:37:48.200Z,13.30
2018-06-28T01:40:17.594Z,13.30
2018-06-28T01:43:03.669Z,13.20
2018-06-28T01:45:37.308Z,13.30
2018-06-28T01:48:07.737Z,13.30
2018-06-28T01:50:37.233Z,13.20
2018-06-28T01:53:06.731Z,13.10
2018-06-28T01:55:36.429Z,13.10
2018-06-28T01:58:06.448Z,13.10
2018-06-28T02:00:35.673Z,13.10
2018-06-28T02:03:04.828Z,13.10
2018-06-28T02:05:34.173Z,13.00
2018-06-28T02:08:04.854Z,12.90
2018-06-28T02:10:34.001Z,12.80
2018-06-28T02:13:03.453Z,12.90
2018-06-28T02:15:33.021Z,12.80
2018-06-28T02:18:02.182Z,12.80
2018-06-28T02:20:31.432Z,12.80
2018-06-28T02:23:00.817Z,12.70
2018-06-28T02:25:31.800Z,12.70
2018-06-28T02:28:01.159Z,12.60
2018-06-28T02:30:30.876Z,12.60
2018-06-28T02:33:00.064Z,12.50
2018-06-28T02:35:29.369Z,12.50
2018-06-28T02:37:58.613Z,12.40
2018-06-28T02:40:27.820Z,12.40
2018-06-28T02:42:57.157Z,12.40
2018-06-28T02:45:26.333Z,12.30
2018-06-28T02:47:55.604Z,12.30
2018-06-28T02:50:25.109Z,12.30
2018-06-28T02:52:54.236Z,12.30
2018-06-28T02:55:25.265Z,12.20
2018-06-28T02:57:54.657Z,12.20
2018-06-28T03:00:23.777Z,12.10
2018-06-28T03:02:53.564Z,12.20
2018-06-28T03:05:23.452Z,12.10
2018-06-28T03:07:52.726Z,12.10
2018-06-28T03:10:21.801Z,12.10
2018-06-28T03:12:51.547Z,12.00
2018-06-28T03:15:20.725Z,12.00
2018-06-28T03:17:49.921Z,12.10
2018-06-28T03:20:19.387Z,12.10
2018-06-28T03:22:48.492Z,12.10
2018-06-28T03:25:17.605Z,12.10
2018-06-28T03:27:47.500Z,12.10
2018-06-28T03:30:16.741Z,12.10
2018-06-28T03:32:45.901Z,12.20
2018-06-28T03:35:15.949Z,12.20
2018-06-28T03:37:45.140Z,12.20
2018-06-28T03:40:14.215Z,12.20
2018-06-28T03:42:43.460Z,12.10
2018-06-28T03:45:12.638Z,12.10
2018-06-28T03:47:42.350Z,12.10
2018-06-28T03:50:11.529Z,12.00
2018-06-28T03:52:40.909Z,12.00
2018-06-28T03:55:11.785Z,12.00
2018-06-28T03:57:41.014Z,12.00
2018-06-28T04:00:10.169Z,12.00
2018-06-28T04:02:41.005Z,12.00
2018-06-28T04:05:10.182Z,12.00
2018-06-28T04:07:39.417Z,11.90
2018-06-28T04:10:08.806Z,11.90
2018-06-28T04:12:37.948Z,12.00
2018-06-28T04:15:08.352Z,12.10
2018-06-28T04:17:37.553Z,12.20
2018-06-28T04:20:07.421Z,12.20
2018-06-28T04:22:36.557Z,12.30
2018-06-28T04:25:07.165Z,12.40
2018-06-28T04:27:36.397Z,12.50
2018-06-28T04:30:06.514Z,12.70
2018-06-28T04:32:35.681Z,12.80
2018-06-28T04:35:06.733Z,12.90
2018-06-28T04:37:35.902Z,13.00
2018-06-28T04:40:05.101Z,13.10
2018-06-28T04:42:34.192Z,13.20
2018-06-28T04:45:05.029Z,13.30
2018-06-28T04:47:34.381Z,13.40
2018-06-28T04:50:05.167Z,13.50
2018-06-28T04:52:36.943Z,13.60
2018-06-28T04:55:06.073Z,13.60
2018-06-28T04:57:39.256Z,13.70
2018-06-28T05:01:37.933Z,13.80
2018-06-28T05:04:07.573Z,13.90
2018-06-28T05:06:37.269Z,13.90
2018-06-28T05:09:08.629Z,14.00
2018-06-28T05:11:37.888Z,14.20
2018-06-28T05:14:07.510Z,14.30
2018-06-28T05:16:37.561Z,14.50
2018-06-28T05:19:07.253Z,14.70
2018-06-28T05:21:36.989Z,14.80
2018-06-28T05:24:06.463Z,15.00
2018-06-28T05:26:35.585Z,15.20
2018-06-28T05:29:04.840Z,15.30
2018-06-28T05:31:34.149Z,15.30
2018-06-28T05:34:03.253Z,15.30
2018-06-28T05:36:32.451Z,15.40
2018-06-28T05:39:01.881Z,15.40
2018-06-28T05:41:31.226Z,15.60
2018-06-28T05:44:00.473Z,15.80
2018-06-28T05:46:31.098Z,16.00
2018-06-28T05:49:00.254Z,16.20
2018-06-28T05:51:29.376Z,16.20
2018-06-28T05:53:58.759Z,16.10
2018-06-28T05:56:28.108Z,16.20
2018-06-28T05:58:57.284Z,16.20
2018-06-28T06:01:27.350Z,16.30
2018-06-28T06:03:56.778Z,16.40
2018-06-28T06:06:26.229Z,16.40
2018-06-28T06:08:55.405Z,16.50
2018-06-28T06:11:24.501Z,16.70
2018-06-28T06:13:53.737Z,16.80
2018-06-28T06:16:22.940Z,16.90
2018-06-28T06:18:52.033Z,17.00
2018-06-28T06:21:23.460Z,17.20
2018-06-28T06:23:55.021Z,17.40
2018-06-28T06:26:25.449Z,17.30
2018-06-28T06:28:54.700Z,17.40
2018-06-28T06:31:24.015Z,17.70
2018-06-28T06:33:53.149Z,18.20
2018-06-28T06:36:25.017Z,18.60
2018-06-28T06:38:54.774Z,18.80
2018-06-28T06:41:26.300Z,18.80
2018-06-28T06:43:57.315Z,18.80
2018-06-28T06:46:29.237Z,18.70
2018-06-28T06:49:08.282Z,18.60
2018-06-28T06:51:38.182Z,18.50
2018-06-28T06:54:07.369Z,18.50
2018-06-28T06:56:37.293Z,18.90
2018-06-28T06:59:10.089Z,18.90
2018-06-28T07:01:40.974Z,19.00
2018-06-28T07:04:16.592Z,19.10
2018-06-28T07:06:48.937Z,19.50
2018-06-28T07:09:18.334Z,19.50
2018-06-28T07:11:56.796Z,19.50
2018-06-28T07:14:25.960Z,19.70
2018-06-28T07:16:55.268Z,20.10
2018-06-28T07:19:25.327Z,20.30
2018-06-28T07:21:54.581Z,20.20
2018-06-28T07:24:28.017Z,20.20
2018-06-28T07:26:58.517Z,20.30
2018-06-28T07:29:27.994Z,20.50
2018-06-28T07:31:57.238Z,21.10
2018-06-28T07:34:27.265Z,21.30
2018-06-28T07:36:58.612Z,21.10
2018-06-28T07:39:28.118Z,21.10
2018-06-28T07:41:57.540Z,21.30
2018-06-28T07:44:26.746Z,21.60
2018-06-28T07:46:56.255Z,21.80
2018-06-28T07:49:26.746Z,21.60
2018-06-28T07:51:56.782Z,21.90
2018-06-28T07:54:28.286Z,22.20
2018-06-28T07:56:57.506Z,22.60
2018-06-28T07:59:26.719Z,23.50
2018-06-28T08:01:57.725Z,24.00
2018-06-28T08:04:30.252Z,24.20
2018-06-28T08:06:59.430Z,25.20
2018-06-28T08:09:30.490Z,24.60
2018-06-28T08:12:01.591Z,25.90
2018-06-28T08:14:33.577Z,24.70
2018-06-28T08:17:02.765Z,23.90
2018-06-28T08:19:32.087Z,24.20
2018-06-28T08:22:01.540Z,25.00
2018-06-28T08:31:16.297Z,25.60
2018-06-28T08:33:48.270Z,25.80
2018-06-28T08:36:17.658Z,25.90
2018-06-28T08:38:46.853Z,26.70
2018-06-28T08:41:16.832Z,28.10
2018-06-28T08:43:47.474Z,26.50
2018-06-28T08:46:16.699Z,26.00
2018-06-28T08:48:46.358Z,25.80
2018-06-28T08:51:16.574Z,25.00
2018-06-28T08:53:45.787Z,24.80
2018-06-28T08:56:15.905Z,25.40
2018-06-28T08:58:45.081Z,25.80
2018-06-28T09:01:15.266Z,26.50
2018-06-28T09:03:44.522Z,27.40
2018-06-28T09:06:13.691Z,27.60
2018-06-28T09:08:42.868Z,26.10
2018-06-28T09:11:12.060Z,25.90
2018-06-28T09:13:41.698Z,24.90
2018-06-28T09:16:11.229Z,25.60
2018-06-28T09:18:40.365Z,25.70
2018-06-28T09:21:10.195Z,25.40
2018-06-28T09:23:39.770Z,25.80
2018-06-28T09:26:09.037Z,25.60
2018-06-28T09:28:38.164Z,25.40
2018-06-28T09:31:07.828Z,26.00
2018-06-28T09:33:38.786Z,25.70
2018-06-28T09:36:08.222Z,24.10
2018-06-28T09:40:06.852Z,24.30
2018-06-28T09:42:37.310Z,24.00
2018-06-28T09:45:07.413Z,24.20
2018-06-28T09:47:36.637Z,25.10
2018-06-28T09:50:07.269Z,25.90
2018-06-28T09:52:36.412Z,25.50
2018-06-28T09:56:37.949Z,26.40
2018-06-28T09:59:07.800Z,26.90
2018-06-28T10:01:37.104Z,27.40
2018-06-28T10:04:08.643Z,26.60
2018-06-28T10:06:38.359Z,25.70
2018-06-28T10:09:09.985Z,25.60
2018-06-28T10:11:39.139Z,25.70
2018-06-28T10:14:08.593Z,27.00
2018-06-28T10:16:38.161Z,27.60
2018-06-28T10:19:11.158Z,26.90
2018-06-28T10:21:42.212Z,26.80
2018-06-28T10:24:13.090Z,26.50
2018-06-28T10:26:43.921Z,26.80
2018-06-28T10:29:13.606Z,27.60
2018-06-28T10:31:42.829Z,26.80
2018-06-28T10:34:12.756Z,26.20
2018-06-28T10:36:41.947Z,26.90
2018-06-28T10:39:12.464Z,26.80
2018-06-28T10:41:42.304Z,27.20
2018-06-28T10:44:11.485Z,26.90
2018-06-28T10:46:41.612Z,27.10
2018-06-28T10:49:10.953Z,27.40
2018-06-28T10:51:41.039Z,27.40
2018-06-28T10:54:10.581Z,28.40
2018-06-28T10:56:42.461Z,29.90
2018-06-28T10:59:13.298Z,30.00
2018-06-28T11:01:44.504Z,28.60
2018-06-28T11:04:15.273Z,27.40
2018-06-28T11:06:46.642Z,27.20
2018-06-28T11:09:15.910Z,27.30
2018-06-28T11:11:45.547Z,27.80
2018-06-28T11:14:16.005Z,28.30
2018-06-28T11:16:45.317Z,28.20
2018-06-28T11:19:14.617Z,28.10
2018-06-28T11:21:44.664Z,29.50
2018-06-28T11:24:14.896Z,30.80
2018-06-28T11:26:45.596Z,30.90
2018-06-28T11:29:15.825Z,30.70
2018-06-28T11:31:47.505Z,30.20
2018-06-28T11:34:16.641Z,30.00
2018-06-28T11:36:45.928Z,29.10
2018-06-28T11:39:15.868Z,28.70
2018-06-28T11:41:45.166Z,28.30
2018-06-28T11:44:14.474Z,29.00
2018-06-28T11:46:44.353Z,29.80
2018-06-28T11:49:14.212Z,30.70
2018-06-28T11:51:43.381Z,32.40
2018-06-28T11:54:13.784Z,32.50
2018-06-28T11:56:44.106Z,32.50
2018-06-28T11:59:14.801Z,33.30
2018-06-28T12:01:44.317Z,32.30
2018-06-28T12:04:14.422Z,31.70
2018-06-28T12:06:44.834Z,30.80
2018-06-28T12:09:14.432Z,30.80
2018-06-28T12:11:44.207Z,30.20
2018-06-28T12:14:13.900Z,30.10
2018-06-28T12:16:44.574Z,30.50
2018-06-28T12:19:14.524Z,28.50
2018-06-28T12:21:43.708Z,27.60
2018-06-28T12:24:13.417Z,28.20
2018-06-28T12:26:42.681Z,29.80
2018-06-28T12:29:12.506Z,30.60
2018-06-28T12:31:41.769Z,30.20
2018-06-28T12:34:11.033Z,29.20
2018-06-28T12:36:41.829Z,29.90
2018-06-28T12:39:11.909Z,30.50
2018-06-28T12:41:41.021Z,30.60
2018-06-28T12:44:10.490Z,30.50
2018-06-28T12:48:09.552Z,30.90
2018-06-28T12:50:38.992Z,30.00
2018-06-28T12:53:12.776Z,28.70
2018-06-28T12:56:49.465Z,29.40
2018-06-28T12:59:20.106Z,30.60
2018-06-28T13:01:49.779Z,32.50
2018-06-28T13:04:19.034Z,31.10
2018-06-28T13:06:48.403Z,30.00
2018-06-28T13:09:18.342Z,28.80
2018-06-28T13:11:49.052Z,28.00
2018-06-28T13:14:18.430Z,27.90
2018-06-28T13:16:47.789Z,28.80
2018-06-28T13:19:18.410Z,29.90
2018-06-28T13:21:47.625Z,30.00
2018-06-28T13:24:17.605Z,29.90
2018-06-28T13:26:46.921Z,30.10
2018-06-28T13:29:18.186Z,29.30
2018-06-28T13:31:47.801Z,29.00
2018-06-28T13:34:21.224Z,28.70
2018-06-28T13:36:51.909Z,28.60
2018-06-28T13:39:22.545Z,27.90
2018-06-28T13:41:56.633Z,27.20
2018-06-28T13:44:26.580Z,26.90
2018-06-28T13:46:56.390Z,26.20
2018-06-28T13:49:29.624Z,25.50
2018-06-28T13:51:59.391Z,25.30
2018-06-28T13:54:29.251Z,25.40
2018-06-28T13:56:58.579Z,25.50
2018-06-28T13:59:28.871Z,25.80
2018-06-28T14:01:58.784Z,26.00
2018-06-28T14:04:28.635Z,25.80
2018-06-28T14:06:58.718Z,25.70
2018-06-28T14:09:27.983Z,25.90
2018-06-28T14:11:57.333Z,26.10
2018-06-28T14:14:26.553Z,26.00
2018-06-28T14:16:56.295Z,26.50
2018-06-28T14:19:25.509Z,26.60
2018-06-28T14:21:55.497Z,26.80
2018-06-28T14:24:25.601Z,27.00
2018-06-28T14:26:56.773Z,27.80
2018-06-28T14:29:27.042Z,27.70
2018-06-28T14:31:56.916Z,27.10
2018-06-28T14:34:26.181Z,26.70
2018-06-28T14:36:55.450Z,26.20
2018-06-28T14:39:25.515Z,25.80
2018-06-28T14:41:54.716Z,25.90
2018-06-28T14:44:24.409Z,25.70
2018-06-28T14:46:53.929Z,25.60
2018-06-28T14:49:24.104Z,25.40
2018-06-28T14:51:53.326Z,26.20
2018-06-28T14:54:22.737Z,27.10
2018-06-28T14:56:52.200Z,27.10
2018-06-28T14:59:21.344Z,26.80
2018-06-28T15:01:50.567Z,26.70
2018-06-28T15:04:21.285Z,27.30
2018-06-28T15:06:50.713Z,26.50
2018-06-28T15:09:19.865Z,26.30
2018-06-28T15:11:49.649Z,27.10
2018-06-28T15:14:19.462Z,27.50
2018-06-28T15:16:48.824Z,27.40
2018-06-28T15:19:18.325Z,27.60
2018-06-28T15:21:48.408Z,27.90
2018-06-28T15:24:18.537Z,28.50
2018-06-28T15:26:48.165Z,28.80
2018-06-28T15:29:17.380Z,29.30
2018-06-28T15:31:49.241Z,29.40
2018-06-28T15:35:47.933Z,28.70
2018-06-28T15:38:17.381Z,27.30
2018-06-28T15:40:46.506Z,27.30
2018-06-28T15:43:15.693Z,27.50
2018-06-28T15:45:46.707Z,26.80
2018-06-28T15:48:15.824Z,26.40
2018-06-28T15:50:45.995Z,26.30
2018-06-28T15:53:15.454Z,26.00
2018-06-28T15:55:45.353Z,25.80
2018-06-28T15:58:14.811Z,25.70
2018-06-28T16:00:45.952Z,25.50
2018-06-28T16:03:16.944Z,25.30
2018-06-28T16:05:46.605Z,25.10
2018-06-28T16:08:16.260Z,25.30
2018-06-28T16:10:45.374Z,25.40
2018-06-28T16:13:15.636Z,25.20
2018-06-28T16:15:44.793Z,25.00
2018-06-28T16:18:14.044Z,25.00
2018-06-28T16:20:43.216Z,25.00
2018-06-28T16:23:13.461Z,25.30
2018-06-28T16:25:44.132Z,25.40
2018-06-28T16:28:13.362Z,25.40
2018-06-28T16:30:44.092Z,25.20
2018-06-28T16:33:15.071Z,25.10
2018-06-28T16:35:44.228Z,25.10
2018-06-28T16:38:14.454Z,25.20
2018-06-28T16:40:43.928Z,25.20
2018-06-28T16:43:13.135Z,25.20
2018-06-28T16:45:42.748Z,25.40
2018-06-28T16:48:11.944Z,25.40
2018-06-28T16:50:41.188Z,25.50
2018-06-28T16:53:11.182Z,25.20
2018-06-28T16:55:40.675Z,25.30
2018-06-28T16:58:11.417Z,25.40
2018-06-28T17:00:41.981Z,25.60
2018-06-28T17:03:16.165Z,25.60
2018-06-28T17:05:46.496Z,25.40
2018-06-28T17:08:15.892Z,25.20
2018-06-28T17:10:45.649Z,24.90
2018-06-28T17:13:14.830Z,24.90
2018-06-28T17:15:44.410Z,24.80
2018-06-28T17:18:13.553Z,24.70
2018-06-28T17:20:42.895Z,24.80
2018-06-28T17:23:12.090Z,25.00
2018-06-28T17:25:41.233Z,25.30
2018-06-28T17:28:10.384Z,25.30
2018-06-28T17:30:40.141Z,25.10
2018-06-28T17:33:10.473Z,25.10
2018-06-28T17:35:39.605Z,25.10
2018-06-28T17:38:08.769Z,25.10
2018-06-28T17:40:37.980Z,25.10
2018-06-28T17:43:07.209Z,24.90
2018-06-28T17:45:36.657Z,25.00
2018-06-28T17:48:06.020Z,25.00
2018-06-28T17:50:35.134Z,24.90
2018-06-28T17:53:04.516Z,24.80
2018-06-28T17:55:33.660Z,24.70
2018-06-28T17:58:03.321Z,24.50
2018-06-28T18:00:32.513Z,24.50
2018-06-28T18:03:01.853Z,24.60
2018-06-28T18:05:31.744Z,24.60
2018-06-28T18:08:00.972Z,24.70
2018-06-28T18:10:32.613Z,24.80
2018-06-28T18:13:02.649Z,24.80
2018-06-28T18:15:32.440Z,24.80
2018-06-28T18:18:01.565Z,24.80
2018-06-28T18:20:31.653Z,24.70
2018-06-28T18:23:00.851Z,24.50
2018-06-28T18:25:30.593Z,24.40
2018-06-28T18:27:59.789Z,24.40
2018-06-28T18:30:30.425Z,24.40
2018-06-28T18:32:59.593Z,24.20
2018-06-28T18:35:28.822Z,24.20
2018-06-28T18:37:58.091Z,24.20
2018-06-28T18:40:27.221Z,24.30
2018-06-28T18:42:56.414Z,24.40
2018-06-28T18:45:25.885Z,24.60
2018-06-28T18:47:55.900Z,24.50
2018-06-28T18:50:25.108Z,24.30
2018-06-28T18:52:54.329Z,24.30
2018-06-28T18:55:23.546Z,24.30
2018-06-28T18:57:52.972Z,24.40
2018-06-28T19:00:22.941Z,24.30
2018-06-28T19:02:52.118Z,24.30
2018-06-28T19:05:21.854Z,24.20
2018-06-28T19:07:51.220Z,24.30
2018-06-28T19:10:25.628Z,24.30
2018-06-28T19:12:54.950Z,24.20
2018-06-28T19:15:29.914Z,24.10
2018-06-28T19:17:59.424Z,24.10
2018-06-28T19:20:28.655Z,24.00
2018-06-28T19:23:04.981Z,23.80
2018-06-28T19:25:35.028Z,23.70
2018-06-28T19:28:05.798Z,23.70
2018-06-28T19:30:40.198Z,23.70
2018-06-28T19:33:10.528Z,23.70
2018-06-28T19:35:39.991Z,23.60
2018-06-28T19:38:09.157Z,23.60
2018-06-28T19:40:44.863Z,23.50
2018-06-28T19:43:13.976Z,23.40
2018-06-28T19:45:43.134Z,23.20
2018-06-28T19:48:13.222Z,23.10
2018-06-28T19:50:47.493Z,23.00
2018-06-28T19:53:18.036Z,22.90
2018-06-28T19:55:47.309Z,22.90
2018-06-28T19:58:17.185Z,22.80
2018-06-28T20:00:52.344Z,22.80
2018-06-28T20:03:28.152Z,22.60
2018-06-28T20:05:57.577Z,22.50
2018-06-28T20:08:26.648Z,22.30
2018-06-28T20:10:56.011Z,22.30
2018-06-28T20:13:30.474Z,22.30
2018-06-28T20:16:04.921Z,22.20
2018-06-28T20:18:39.436Z,22.20
2018-06-28T20:21:09.103Z,22.10
2018-06-28T20:23:38.593Z,22.10
2018-06-28T20:26:13.171Z,22.00
2018-06-28T20:28:47.927Z,22.00
2018-06-28T20:31:22.329Z,21.90
2018-06-28T20:33:56.787Z,21.80
2018-06-28T20:36:26.461Z,21.80
2018-06-28T20:38:55.661Z,21.80
2018-06-28T20:41:24.824Z,21.70
2018-06-28T20:43:55.185Z,21.60
2018-06-28T20:46:24.365Z,21.60
2018-06-28T20:48:53.473Z,21.70
2018-06-28T20:51:22.644Z,21.80
2018-06-28T20:53:53.848Z,21.80
2018-06-28T20:56:23.394Z,21.80
2018-06-28T20:58:52.596Z,21.90
2018-06-28T21:01:21.797Z,21.70
2018-06-28T21:03:51.653Z,21.70
2018-06-28T21:06:21.136Z,21.60
2018-06-28T21:08:51.336Z,21.60
2018-06-28T21:11:21.432Z,21.70
2018-06-28T21:13:50.583Z,21.60
2018-06-28T21:16:20.433Z,21.50
2018-06-28T21:18:49.659Z,21.30
2018-06-28T21:21:19.080Z,21.30
2018-06-28T21:23:48.217Z,21.20
2018-06-28T21:26:17.600Z,21.10
2018-06-28T21:28:46.837Z,21.10
2018-06-28T21:31:16.647Z,21.20
2018-06-28T21:33:45.796Z,21.30
2018-06-28T21:36:14.973Z,21.30
2018-06-28T21:38:44.973Z,21.20
2018-06-28T21:41:14.642Z,21.30
2018-06-28T21:43:43.845Z,21.40
2018-06-28T21:46:13.316Z,21.40
2018-06-28T21:48:42.505Z,21.40
2018-06-28T21:51:11.865Z,21.30
2018-06-28T21:53:41.349Z,21.20
2018-06-28T21:56:10.673Z,21.10
2018-06-28T21:58:39.856Z,21.00
2018-06-28T22:01:09.614Z,21.10
2018-06-28T22:03:38.769Z,21.10
2018-06-28T22:06:08.733Z,21.10
2018-06-28T22:08:38.204Z,21.00
2018-06-28T22:11:08.317Z,20.90
2018-06-28T22:13:37.700Z,20.90
2018-06-28T22:16:07.117Z,20.80
2018-06-28T22:18:36.413Z,20.80
2018-06-28T22:21:06.525Z,20.80
2018-06-28T22:23:36.532Z,20.70
2018-06-28T22:26:05.751Z,20.70
2018-06-28T22:28:36.436Z,20.60
2018-06-28T22:31:05.876Z,20.60
2018-06-28T22:33:35.001Z,20.60
2018-06-28T22:36:04.173Z,20.70
2018-06-28T22:38:33.537Z,20.70
2018-06-28T22:41:02.672Z,20.70
2018-06-28T22:43:31.982Z,20.60
2018-06-28T22:46:01.288Z,20.60
2018-06-28T22:48:30.492Z,20.50
2018-06-28T22:51:00.109Z,20.50
2018-06-28T22:53:29.593Z,20.40
2018-06-28T22:55:58.744Z,20.40
2018-06-28T22:58:27.830Z,20.30
2018-06-28T23:00:57.380Z,20.30
2018-06-28T23:03:27.873Z,20.30
2018-06-28T23:05:57.200Z,20.30
2018-06-28T23:08:26.549Z,20.30
2018-06-28T23:10:55.602Z,20.30
2018-06-28T23:13:24.912Z,20.30
2018-06-28T23:15:54.038Z,20.30
2018-06-28T23:18:23.117Z,20.30
2018-06-28T23:20:53.017Z,20.30
2018-06-28T23:23:22.700Z,20.20
2018-06-28T23:25:52.557Z,20.20
2018-06-28T23:28:21.652Z,20.10
2018-06-28T23:30:50.800Z,20.20
2018-06-28T23:33:20.449Z,20.20
2018-06-28T23:35:50.073Z,20.20
2018-06-28T23:38:19.831Z,20.20
2018-06-28T23:40:48.949Z,20.10
2018-06-28T23:43:18.084Z,20.00
2018-06-28T23:45:47.832Z,20.00
2018-06-28T23:48:17.109Z,20.00
2018-06-28T23:50:46.257Z,20.00
2018-06-28T23:53:15.645Z,19.90
2018-06-28T23:55:44.892Z,19.90
2018-06-28T23:58:13.993Z,19.80
